createdAt,value
2022-09-07T00:00:03.376Z,28.55
2022-09-07T00:02:34.136Z,28.55
2022-09-07T00:05:05.701Z,28.57
2022-09-07T00:07:36.592Z,28.58
2022-09-07T00:10:09.169Z,28.58
2022-09-07T00:12:40.214Z,28.56
2022-09-07T00:15:13.715Z,28.55
2022-09-07T00:17:44.382Z,28.55
2022-09-07T00:20:15.655Z,28.54
2022-09-07T00:22:46.681Z,28.53
2022-09-07T00:25:17.633Z,28.52
2022-09-07T00:27:49.043Z,28.53
2022-09-07T00:30:20.437Z,28.51
2022-09-07T00:32:51.067Z,28.49
2022-09-07T00:35:22.157Z,28.48
2022-09-07T00:37:52.916Z,28.48
2022-09-07T00:40:23.862Z,28.47
2022-09-07T00:42:54.714Z,28.47
2022-09-07T00:45:26.245Z,28.47
2022-09-07T00:48:02.112Z,28.48
2022-09-07T00:50:37.866Z,28.49
2022-09-07T00:53:12.107Z,28.49
2022-09-07T00:55:45.514Z,28.48
2022-09-07T00:58:17.057Z,28.46
2022-09-07T01:00:50.033Z,28.46
2022-09-07T01:03:25.750Z,28.45
2022-09-07T01:06:01.341Z,28.44
2022-09-07T01:08:32.279Z,28.41
2022-09-07T01:11:04.109Z,28.39
2022-09-07T01:13:35.138Z,28.40
2022-09-07T01:16:14.118Z,28.38
2022-09-07T01:18:53.918Z,28.36
2022-09-07T01:21:35.123Z,28.34
2022-09-07T01:24:34.320Z,28.33
2022-09-07T01:27:41.893Z,28.33
2022-09-07T01:30:15.760Z,28.35
2022-09-07T01:33:03.290Z,28.36
2022-09-07T01:35:42.521Z,28.35
2022-09-07T01:38:22.175Z,28.37
2022-09-07T01:40:58.654Z,28.38
2022-09-07T01:43:38.017Z,28.37
2022-09-07T01:46:23.090Z,28.37
2022-09-07T01:48:57.360Z,28.33
2022-09-07T01:51:33.294Z,28.34
2022-09-07T01:54:10.470Z,28.34
2022-09-07T01:56:46.707Z,28.33
2022-09-07T01:59:24.999Z,28.34
2022-09-07T02:02:01.969Z,28.33
2022-09-07T02:04:37.455Z,28.34
2022-09-07T02:07:14.108Z,28.34
2022-09-07T02:09:50.450Z,28.34
2022-09-07T02:12:31.023Z,28.34
2022-09-07T02:15:06.281Z,28.33
2022-09-07T02:17:41.230Z,28.33
2022-09-07T02:20:16.685Z,28.32
2022-09-07T02:22:51.250Z,28.29
2022-09-07T02:25:27.238Z,28.29
2022-09-07T02:28:03.223Z,28.29
2022-09-07T02:30:34.149Z,28.29
2022-09-07T02:33:05.535Z,28.29
2022-09-07T02:35:36.967Z,28.27
2022-09-07T02:38:09.255Z,28.27
2022-09-07T02:40:40.283Z,28.27
2022-09-07T02:43:12.787Z,28.28
2022-09-07T02:45:59.206Z,28.27
2022-09-07T02:48:37.905Z,28.26
2022-09-07T02:51:17.513Z,28.25
2022-09-07T02:54:05.741Z,28.24
2022-09-07T02:56:52.202Z,28.23
2022-09-07T02:59:38.395Z,28.22
2022-09-07T03:02:15.425Z,28.27
2022-09-07T03:04:51.701Z,28.32
2022-09-07T03:07:29.036Z,28.32
2022-09-07T03:10:03.720Z,28.31
2022-09-07T03:12:44.915Z,28.28
2022-09-07T03:15:17.148Z,28.21
2022-09-07T03:17:48.121Z,28.19
2022-09-07T03:20:20.433Z,28.18
2022-09-07T03:22:53.207Z,28.17
2022-09-07T03:25:24.219Z,28.16
2022-09-07T03:27:54.940Z,28.16
2022-09-07T03:30:25.611Z,28.15
2022-09-07T03:32:56.490Z,28.19
2022-09-07T03:35:27.209Z,28.20
2022-09-07T03:37:57.872Z,28.19
2022-09-07T03:40:28.977Z,28.16
2022-09-07T03:42:59.651Z,28.14
2022-09-07T03:45:30.406Z,28.13
2022-09-07T03:48:01.091Z,28.13
2022-09-07T03:50:31.773Z,28.13
2022-09-07T03:53:02.704Z,28.13
2022-09-07T03:55:33.476Z,28.11
2022-09-07T03:58:04.486Z,28.10
2022-09-07T04:00:35.503Z,28.09
2022-09-07T04:03:06.693Z,28.07
2022-09-07T04:05:37.477Z,28.07
2022-09-07T04:08:08.672Z,28.08
2022-09-07T04:10:41.724Z,28.06
2022-09-07T04:16:00.152Z,28.03
2022-09-07T04:18:31.374Z,27.99
2022-09-07T04:21:02.813Z,27.99
2022-09-07T04:23:33.574Z,27.97
2022-09-07T04:26:04.350Z,27.93
2022-09-07T04:28:35.255Z,27.92
2022-09-07T04:31:06.308Z,27.92
2022-09-07T04:33:36.985Z,27.90
2022-09-07T04:36:09.004Z,27.88
2022-09-07T04:38:40.150Z,27.87
2022-09-07T04:41:14.300Z,27.87
2022-09-07T04:43:45.941Z,27.86
2022-09-07T04:46:21.912Z,27.86
2022-09-07T04:48:54.200Z,27.82
2022-09-07T04:51:26.283Z,27.85
2022-09-07T04:54:00.296Z,27.83
2022-09-07T04:56:31.674Z,27.82
2022-09-07T04:59:04.171Z,27.81
2022-09-07T05:01:35.249Z,27.81
2022-09-07T05:04:06.774Z,27.81
2022-09-07T05:06:37.524Z,27.80
2022-09-07T05:09:08.655Z,27.80
2022-09-07T05:11:39.663Z,27.80
2022-09-07T05:14:11.016Z,27.80
2022-09-07T05:16:42.063Z,27.79
2022-09-07T05:19:16.036Z,27.78
2022-09-07T05:21:46.693Z,27.75
2022-09-07T05:24:17.447Z,27.77
2022-09-07T05:26:48.324Z,27.77
2022-09-07T05:32:10.224Z,27.75
2022-09-07T05:34:40.934Z,27.75
2022-09-07T05:37:11.975Z,27.73
2022-09-07T05:39:42.827Z,27.73
2022-09-07T05:42:13.919Z,27.73
2022-09-07T05:44:45.418Z,27.72
2022-09-07T05:47:16.822Z,27.71
2022-09-07T05:49:47.601Z,27.71
2022-09-07T05:52:18.356Z,27.71
2022-09-07T05:54:49.927Z,27.70
2022-09-07T05:57:20.599Z,27.70
2022-09-07T05:59:51.372Z,27.69
2022-09-07T06:02:22.152Z,27.70
2022-09-07T06:04:53.036Z,27.69
2022-09-07T06:07:23.834Z,27.69
2022-09-07T06:12:49.220Z,27.69
2022-09-07T06:15:20.502Z,27.69
2022-09-07T06:17:51.265Z,27.69
2022-09-07T06:20:22.030Z,27.69
2022-09-07T06:22:52.742Z,27.69
2022-09-07T06:25:23.509Z,27.71
2022-09-07T06:27:54.469Z,27.71
2022-09-07T06:30:25.496Z,27.71
2022-09-07T06:32:56.284Z,27.71
2022-09-07T06:35:27.213Z,27.72
2022-09-07T06:37:58.340Z,27.73
2022-09-07T06:40:29.160Z,27.73
2022-09-07T06:42:59.903Z,27.73
2022-09-07T06:45:30.649Z,27.73
2022-09-07T06:48:01.328Z,27.72
2022-09-07T06:50:32.425Z,27.74
2022-09-07T06:55:54.357Z,27.75
2022-09-07T06:58:26.038Z,27.76
2022-09-07T07:00:57.501Z,27.76
2022-09-07T07:03:29.514Z,27.77
2022-09-07T07:06:00.483Z,27.77
2022-09-07T07:08:31.649Z,27.78
2022-09-07T07:11:07.960Z,27.78
2022-09-07T07:13:39.562Z,27.80
2022-09-07T07:16:12.362Z,27.81
2022-09-07T07:18:44.313Z,27.82
2022-09-07T07:21:16.855Z,27.84
2022-09-07T07:23:50.540Z,27.87
2022-09-07T07:26:23.821Z,27.89
2022-09-07T07:29:03.715Z,27.92
2022-09-07T07:31:35.222Z,27.92
2022-09-07T07:34:05.999Z,27.95
2022-09-07T07:36:36.879Z,27.96
2022-09-07T07:39:07.667Z,27.99
2022-09-07T07:41:55.431Z,28.01
2022-09-07T07:44:28.306Z,28.03
2022-09-07T07:46:59.471Z,28.03
2022-09-07T07:49:30.317Z,28.04
2022-09-07T07:54:51.881Z,28.02
2022-09-07T07:57:22.688Z,28.06
2022-09-07T07:59:53.425Z,28.07
2022-09-07T08:02:24.203Z,28.08
2022-09-07T08:04:55.040Z,28.10
2022-09-07T08:07:25.746Z,28.08
2022-09-07T08:09:56.582Z,28.12
2022-09-07T08:12:29.782Z,28.13
2022-09-07T08:14:59.087Z,28.13
2022-09-07T08:17:30.356Z,28.10
2022-09-07T08:20:01.075Z,28.13
2022-09-07T08:22:34.828Z,28.16
2022-09-07T08:25:07.227Z,28.16
2022-09-07T08:27:38.245Z,28.16
2022-09-07T08:30:12.453Z,28.18
2022-09-07T08:32:43.252Z,28.20
2022-09-07T08:35:14.250Z,28.22
2022-09-07T08:37:45.041Z,28.22
2022-09-07T08:40:19.367Z,28.23
2022-09-07T08:43:04.328Z,28.25
2022-09-07T08:45:39.316Z,28.26
2022-09-07T08:48:16.133Z,28.26
2022-09-07T08:50:56.359Z,28.28
2022-09-07T08:53:27.801Z,28.28
2022-09-07T08:56:02.148Z,28.28
2022-09-07T08:58:49.273Z,28.28
2022-09-07T09:01:32.524Z,28.28
2022-09-07T09:04:21.790Z,28.28
2022-09-07T09:07:11.765Z,28.31
2022-09-07T09:10:02.041Z,28.34
2022-09-07T09:12:44.017Z,28.35
2022-09-07T09:15:21.586Z,28.36
2022-09-07T09:18:01.280Z,28.37
2022-09-07T09:20:40.346Z,28.37
2022-09-07T09:23:14.873Z,28.39
2022-09-07T09:25:53.405Z,28.40
2022-09-07T09:28:26.511Z,28.42
2022-09-07T09:31:00.030Z,28.42
2022-09-07T09:33:31.613Z,28.43
2022-09-07T09:36:03.519Z,28.43
2022-09-07T09:38:39.546Z,28.44
2022-09-07T09:41:12.495Z,28.44
2022-09-07T09:43:45.985Z,28.43
2022-09-07T09:46:23.909Z,28.44
2022-09-07T09:49:01.385Z,28.46
2022-09-07T09:54:38.728Z,28.44
2022-09-07T09:57:14.325Z,28.44
2022-09-07T10:00:05.329Z,28.46
2022-09-07T10:05:35.314Z,28.47
2022-09-07T10:08:17.034Z,28.49
2022-09-07T10:11:00.473Z,28.50
2022-09-07T10:13:35.208Z,28.51
2022-09-07T10:16:09.464Z,28.52
2022-09-07T10:18:42.809Z,28.54
2022-09-07T10:21:28.814Z,28.56
2022-09-07T10:24:15.488Z,28.56
2022-09-07T10:26:48.736Z,28.56
2022-09-07T10:29:29.382Z,28.57
2022-09-07T10:32:14.132Z,28.59
2022-09-07T10:34:57.073Z,28.59
2022-09-07T10:37:42.323Z,28.62
2022-09-07T10:40:23.193Z,28.64
2022-09-07T10:46:07.499Z,28.64
2022-09-07T10:48:46.679Z,28.62
2022-09-07T10:51:27.370Z,28.65
2022-09-07T10:57:10.450Z,28.67
2022-09-07T11:00:09.353Z,28.69
2022-09-07T11:05:59.169Z,28.69
2022-09-07T11:14:31.125Z,28.71
2022-09-07T11:17:06.566Z,28.72
2022-09-07T11:19:44.729Z,28.73
2022-09-07T11:22:27.546Z,28.73
2022-09-07T11:27:57.330Z,28.74
2022-09-07T11:30:32.518Z,28.77
2022-09-07T11:33:08.584Z,28.80
2022-09-07T11:35:46.391Z,28.81
2022-09-07T11:38:26.619Z,28.81
2022-09-07T11:41:09.852Z,28.81
2022-09-07T11:43:44.890Z,28.83
2022-09-07T11:46:20.890Z,28.84
2022-09-07T11:48:55.774Z,28.84
2022-09-07T11:51:36.598Z,28.85
2022-09-07T11:54:21.199Z,28.87
2022-09-07T11:56:58.173Z,28.89
2022-09-07T11:59:40.143Z,28.89
2022-09-07T12:02:58.181Z,28.89
2022-09-07T12:05:43.990Z,28.90
2022-09-07T12:08:31.181Z,28.90
2022-09-07T12:11:24.333Z,28.92
2022-09-07T12:14:12.410Z,28.93
2022-09-07T12:17:09.997Z,28.94
2022-09-07T12:19:39.324Z,28.94
2022-09-07T12:22:22.554Z,28.93
2022-09-07T12:24:54.205Z,28.94
2022-09-07T12:27:40.783Z,28.96
2022-09-07T12:30:54.451Z,28.97
2022-09-07T12:33:34.411Z,28.99
2022-09-07T12:36:35.503Z,28.98
2022-09-07T12:39:24.982Z,28.99
2022-09-07T12:42:32.273Z,29.01
2022-09-07T12:45:34.187Z,29.01
2022-09-07T12:48:14.625Z,29.02
2022-09-07T12:50:56.952Z,29.03
2022-09-07T12:53:33.951Z,29.02
2022-09-07T12:56:20.641Z,29.02
2022-09-07T12:59:02.492Z,29.02
2022-09-07T13:01:52.929Z,29.04
2022-09-07T13:04:43.938Z,29.04
2022-09-07T13:07:41.362Z,29.03
2022-09-07T13:10:30.482Z,29.03
2022-09-07T13:13:06.877Z,29.03
2022-09-07T13:15:44.351Z,29.04
2022-09-07T13:18:43.114Z,29.05
2022-09-07T13:21:34.311Z,29.06
2022-09-07T13:24:46.251Z,29.07
2022-09-07T13:27:44.047Z,29.05
2022-09-07T13:30:27.524Z,29.05
2022-09-07T13:33:48.421Z,29.05
2022-09-07T13:36:27.774Z,29.06
2022-09-07T13:38:57.988Z,29.07
2022-09-07T13:41:35.190Z,29.04
2022-09-07T13:44:06.621Z,29.06
2022-09-07T13:46:57.404Z,29.05
2022-09-07T13:49:50.417Z,29.05
2022-09-07T13:52:31.418Z,29.05
2022-09-07T13:55:14.303Z,29.05
2022-09-07T13:57:55.510Z,29.05
2022-09-07T14:00:26.780Z,29.05
2022-09-07T14:03:02.027Z,29.05
2022-09-07T14:05:33.193Z,29.06
2022-09-07T14:08:04.292Z,29.06
2022-09-07T14:10:35.031Z,29.05
2022-09-07T14:13:14.504Z,29.04
2022-09-07T14:15:47.428Z,29.04
2022-09-07T14:18:19.859Z,29.06
2022-09-07T14:20:52.657Z,29.08
2022-09-07T14:23:32.754Z,29.08
2022-09-07T14:26:18.261Z,29.08
2022-09-07T14:28:51.926Z,29.08
2022-09-07T14:31:25.265Z,29.08
2022-09-07T14:33:57.812Z,29.06
2022-09-07T14:36:45.239Z,29.07
2022-09-07T14:39:18.657Z,29.07
2022-09-07T14:41:50.072Z,29.05
2022-09-07T14:44:32.565Z,29.07
2022-09-07T14:47:13.196Z,29.06
2022-09-07T14:50:06.350Z,29.05
2022-09-07T14:53:33.353Z,29.04
2022-09-07T14:55:35.768Z,29.02
2022-09-07T14:58:22.185Z,29.04
2022-09-07T15:03:59.702Z,29.07
2022-09-07T15:09:39.561Z,29.14
2022-09-07T15:12:27.158Z,29.14
2022-09-07T15:15:12.780Z,29.13
2022-09-07T15:17:44.167Z,29.13
2022-09-07T15:20:44.187Z,29.15
2022-09-07T15:23:16.819Z,29.18
2022-09-07T15:25:51.848Z,29.20
2022-09-07T15:34:15.771Z,29.24
2022-09-07T15:36:51.823Z,29.22
2022-09-07T15:39:25.276Z,29.17
2022-09-07T15:41:56.983Z,29.12
2022-09-07T15:44:28.459Z,29.14
2022-09-07T15:49:53.703Z,28.88
2022-09-07T15:52:24.698Z,28.77
2022-09-07T15:54:56.681Z,28.65
2022-09-07T16:00:19.252Z,28.45
2022-09-07T16:03:08.398Z,28.39
2022-09-07T16:05:44.370Z,28.38
2022-09-07T16:11:18.523Z,28.47
2022-09-07T16:13:50.444Z,28.42
2022-09-07T16:16:21.502Z,28.42
2022-09-07T16:18:53.675Z,28.39
2022-09-07T16:21:26.320Z,28.37
2022-09-07T16:23:58.939Z,28.36
2022-09-07T16:26:29.883Z,28.41
2022-09-07T16:29:01.653Z,28.46
2022-09-07T16:31:33.589Z,28.52
2022-09-07T16:34:05.867Z,28.61
2022-09-07T16:36:37.161Z,28.67
2022-09-07T16:39:08.198Z,28.67
2022-09-07T16:41:39.180Z,28.70
2022-09-07T16:44:10.068Z,28.76
2022-09-07T16:46:41.058Z,28.82
2022-09-07T16:49:13.175Z,28.84
2022-09-07T16:51:45.801Z,28.87
2022-09-07T16:54:17.085Z,28.90
2022-09-07T16:56:48.061Z,28.95
2022-09-07T16:59:21.493Z,28.98
2022-09-07T17:01:52.393Z,29.00
2022-09-07T17:04:23.605Z,29.02
2022-09-07T17:06:54.622Z,29.05
2022-09-07T17:09:26.860Z,29.07
2022-09-07T17:11:57.616Z,29.08
2022-09-07T17:14:29.469Z,29.08
2022-09-07T17:17:00.587Z,29.10
2022-09-07T17:19:32.207Z,29.11
2022-09-07T17:22:03.811Z,29.11
2022-09-07T17:24:35.067Z,29.13
2022-09-07T17:27:06.765Z,29.16
2022-09-07T17:29:37.826Z,29.17
2022-09-07T17:32:25.483Z,29.19
2022-09-07T17:34:56.859Z,29.20
2022-09-07T17:37:28.069Z,29.20
2022-09-07T17:39:59.220Z,29.21
2022-09-07T17:45:21.383Z,29.22
2022-09-07T17:47:52.398Z,29.21
2022-09-07T17:50:23.500Z,29.19
2022-09-07T17:52:54.422Z,29.18
2022-09-07T17:55:25.483Z,29.18
2022-09-07T17:57:56.266Z,29.17
2022-09-07T18:00:27.396Z,29.18
2022-09-07T18:02:59.236Z,29.18
2022-09-07T18:05:30.205Z,29.18
2022-09-07T18:08:01.184Z,29.18
2022-09-07T18:11:44.862Z,29.18
2022-09-07T18:13:33.715Z,29.16
2022-09-07T18:16:15.256Z,29.17
2022-09-07T18:18:46.959Z,29.16
2022-09-07T18:21:21.639Z,29.16
2022-09-07T18:23:56.764Z,29.15
2022-09-07T18:26:28.107Z,29.15
2022-09-07T18:29:13.139Z,29.14
2022-09-07T18:31:50.634Z,29.13
2022-09-07T18:34:22.086Z,29.13
2022-09-07T18:36:53.817Z,29.13
2022-09-07T18:39:25.947Z,29.12
2022-09-07T18:41:58.324Z,29.10
2022-09-07T18:47:28.001Z,29.14
2022-09-07T18:50:00.183Z,29.15
2022-09-07T18:55:24.256Z,29.15
2022-09-07T18:57:57.584Z,29.14
2022-09-07T19:00:27.714Z,29.12
2022-09-07T19:02:59.702Z,29.11
2022-09-07T19:08:21.944Z,29.14
2022-09-07T19:10:53.234Z,29.15
2022-09-07T19:13:24.161Z,29.16
2022-09-07T19:15:55.266Z,29.16
2022-09-07T19:18:26.707Z,29.16
2022-09-07T19:20:57.642Z,29.17
2022-09-07T19:23:28.651Z,29.16
2022-09-07T19:26:02.450Z,29.16
2022-09-07T19:28:33.838Z,29.17
2022-09-07T19:31:07.245Z,29.17
2022-09-07T19:33:38.201Z,29.18
2022-09-07T19:36:10.339Z,29.17
2022-09-07T19:38:41.245Z,29.18
2022-09-07T19:41:14.115Z,29.20
2022-09-07T19:43:45.749Z,29.20
2022-09-07T19:46:21.404Z,29.20
2022-09-07T19:48:55.294Z,29.19
2022-09-07T19:51:26.568Z,29.18
2022-09-07T19:53:59.210Z,29.18
2022-09-07T19:56:30.272Z,29.18
2022-09-07T19:59:01.437Z,29.18
2022-09-07T20:01:32.585Z,29.18
2022-09-07T20:04:06.252Z,29.18
2022-09-07T20:06:36.247Z,29.19
2022-09-07T20:09:08.225Z,29.16
2022-09-07T20:11:41.787Z,29.18
2022-09-07T20:14:15.689Z,29.18
2022-09-07T20:16:46.614Z,29.18
2022-09-07T20:19:19.724Z,29.17
2022-09-07T20:21:55.777Z,29.17
2022-09-07T20:24:26.726Z,29.13
2022-09-07T20:26:57.577Z,29.07
2022-09-07T20:29:29.212Z,29.04
2022-09-07T20:32:01.723Z,29.05
2022-09-07T20:34:33.643Z,29.05
2022-09-07T20:37:05.547Z,29.06
2022-09-07T20:39:39.373Z,29.07
2022-09-07T20:42:10.798Z,29.04
2022-09-07T20:44:41.536Z,29.04
2022-09-07T20:47:12.281Z,29.04
2022-09-07T20:49:43.080Z,29.05
2022-09-07T20:52:13.958Z,29.06
2022-09-07T20:54:44.625Z,29.03
2022-09-07T20:57:15.437Z,29.03
2022-09-07T20:59:46.170Z,29.02
2022-09-07T21:02:17.105Z,29.00
2022-09-07T21:04:47.962Z,28.99
2022-09-07T21:07:18.901Z,28.97
2022-09-07T21:09:49.945Z,28.96
2022-09-07T21:12:20.892Z,28.95
2022-09-07T21:14:51.712Z,28.97
2022-09-07T21:17:22.469Z,28.98
2022-09-07T21:19:53.203Z,29.00
2022-09-07T21:22:23.872Z,29.02
2022-09-07T21:24:54.577Z,29.02
2022-09-07T21:27:25.667Z,29.02
2022-09-07T21:29:56.359Z,29.06
2022-09-07T21:32:26.996Z,29.07
2022-09-07T21:34:57.941Z,29.08
2022-09-07T21:37:28.574Z,29.10
2022-09-07T21:39:59.253Z,29.10
2022-09-07T21:42:29.912Z,29.09
2022-09-07T21:45:00.735Z,29.08
2022-09-07T21:47:31.528Z,29.09
2022-09-07T21:50:02.178Z,29.10
2022-09-07T21:52:32.854Z,29.13
2022-09-07T21:55:03.520Z,29.12
2022-09-07T21:57:34.206Z,29.11
2022-09-07T22:00:05.908Z,29.11
2022-09-07T22:02:36.774Z,29.11
2022-09-07T22:05:08.404Z,29.13
2022-09-07T22:07:39.274Z,29.12
2022-09-07T22:10:11.248Z,29.09
2022-09-07T22:12:41.954Z,29.07
2022-09-07T22:15:13.467Z,29.06
2022-09-07T22:17:46.278Z,29.05
2022-09-07T22:20:18.108Z,29.04
2022-09-07T22:22:48.789Z,29.03
2022-09-07T22:25:19.840Z,29.03
2022-09-07T22:27:50.501Z,29.03
2022-09-07T22:30:21.351Z,29.04
2022-09-07T22:32:52.795Z,29.04
2022-09-07T22:35:25.072Z,29.03
2022-09-07T22:37:56.012Z,29.03
2022-09-07T22:40:26.957Z,29.04
2022-09-07T22:42:57.620Z,29.03
2022-09-07T22:48:17.235Z,29.02
2022-09-07T22:50:54.780Z,29.00
2022-09-07T22:53:25.734Z,29.01
2022-09-07T22:55:56.849Z,29.00
2022-09-07T22:58:29.146Z,29.00
2022-09-07T23:01:01.785Z,29.00
2022-09-07T23:03:34.075Z,29.00
2022-09-07T23:06:05.654Z,28.99
2022-09-07T23:08:36.343Z,28.99
2022-09-07T23:11:07.800Z,29.00
2022-09-07T23:13:38.788Z,29.01
2022-09-07T23:16:10.772Z,29.01
2022-09-07T23:18:42.593Z,29.01
2022-09-07T23:21:13.844Z,29.01
2022-09-07T23:23:44.592Z,29.01
2022-09-07T23:26:15.546Z,29.01
2022-09-07T23:28:46.569Z,29.01
2022-09-07T23:31:17.332Z,29.00
2022-09-07T23:33:48.376Z,29.00
2022-09-07T23:36:20.137Z,29.00
2022-09-07T23:38:51.592Z,29.00
2022-09-07T23:41:22.210Z,28.99
2022-09-07T23:43:53.069Z,29.00
2022-09-07T23:46:23.959Z,28.99
2022-09-07T23:48:54.956Z,28.98
2022-09-07T23:51:25.708Z,28.97
2022-09-07T23:53:56.737Z,28.96
2022-09-07T23:56:27.475Z,28.96
2022-09-07T23:58:58.423Z,28.94
